sensor_id;sensor_type;location;lat;lon;timestamp;pressure;altitude;pressure_sealevel;temperature;humidity
57990;BME280;58373;51.824;5.564;2023-05-11T00:01:40;101363.06;;;11.80;100.00
57990;BME280;58373;51.824;5.564;2023-05-11T00:04:06;101361.25;;;11.82;100.00
57990;BME280;58373;51.824;5.564;2023-05-11T00:06:32;101361.25;;;11.82;100.00
57990;BME280;58373;51.824;5.564;2023-05-11T00:08:57;101361.31;;;11.80;100.00
57990;BME280;58373;51.824;5.564;2023-05-11T00:11:22;101358.69;;;11.80;100.00
57990;BME280;58373;51.824;5.564;2023-05-11T00:13:47;101359.66;;;11.79;100.00
57990;BME280;58373;51.824;5.564;2023-05-11T00:16:13;101352.69;;;11.80;100.00
57990;BME280;58373;51.824;5.564;2023-05-11T00:18:38;101352.69;;;11.80;100.00
57990;BME280;58373;51.824;5.564;2023-05-11T00:21:04;101356.03;;;11.82;100.00
57990;BME280;58373;51.824;5.564;2023-05-11T00:23:29;101357.69;;;11.83;100.00
57990;BME280;58373;51.824;5.564;2023-05-11T00:25:54;101360.97;;;11.85;100.00
57990;BME280;58373;51.824;5.564;2023-05-11T00:28:19;101345.38;;;11.85;100.00
57990;BME280;58373;51.824;5.564;2023-05-11T00:30:45;101345.38;;;11.85;100.00
57990;BME280;58373;51.824;5.564;2023-05-11T00:33:11;101355.78;;;11.85;100.00
57990;BME280;58373;51.824;5.564;2023-05-11T00:35:36;101356.72;;;11.84;100.00
57990;BME280;58373;51.824;5.564;2023-05-11T00:38:02;101346.22;;;11.85;100.00
57990;BME280;58373;51.824;5.564;2023-05-11T00:40:27;101353.88;;;11.87;100.00
57990;BME280;58373;51.824;5.564;2023-05-11T00:42:52;101347.63;;;11.89;100.00
57990;BME280;58373;51.824;5.564;2023-05-11T00:45:18;101350.22;;;11.89;100.00
57990;BME280;58373;51.824;5.564;2023-05-11T00:47:43;101347.03;;;11.86;100.00
57990;BME280;58373;51.824;5.564;2023-05-11T00:50:08;101354.13;;;11.84;100.00
57990;BME280;58373;51.824;5.564;2023-05-11T00:52:33;101353.50;;;11.80;100.00
57990;BME280;58373;51.824;5.564;2023-05-11T00:54:59;101345.84;;;11.79;100.00
57990;BME280;58373;51.824;5.564;2023-05-11T00:57:24;101343.38;;;11.77;100.00
57990;BME280;58373;51.824;5.564;2023-05-11T00:59:50;101352.13;;;11.76;100.00
57990;BME280;58373;51.824;5.564;2023-05-11T01:02:15;101347.97;;;11.74;100.00
57990;BME280;58373;51.824;5.564;2023-05-11T01:04:41;101345.50;;;11.72;100.00
57990;BME280;58373;51.824;5.564;2023-05-11T01:07:18;101352.59;;;11.70;100.00
57990;BME280;58373;51.824;5.564;2023-05-11T01:09:58;101354.47;;;11.68;100.00
57990;BME280;58373;51.824;5.564;2023-05-11T01:13:09;101355.28;;;11.68;100.00
57990;BME280;58373;51.824;5.564;2023-05-11T01:15:15;101356.94;;;11.69;100.00
57990;BME280;58373;51.824;5.564;2023-05-11T01:20:17;101351.50;;;11.73;100.00
57990;BME280;58373;51.824;5.564;2023-05-11T01:25:17;101355.53;;;11.77;100.00
57990;BME280;58373;51.824;5.564;2023-05-11T01:31:04;101357.88;;;11.80;100.00
57990;BME280;58373;51.824;5.564;2023-05-11T01:33:25;101368.09;;;11.83;100.00
57990;BME280;58373;51.824;5.564;2023-05-11T01:35:52;101359.34;;;11.84;100.00
57990;BME280;58373;51.824;5.564;2023-05-11T01:38:19;101354.97;;;11.84;100.00
57990;BME280;58373;51.824;5.564;2023-05-11T01:40:46;101351.72;;;11.81;100.00
57990;BME280;58373;51.824;5.564;2023-05-11T01:43:16;101354.31;;;11.81;100.00
57990;BME280;58373;51.824;5.564;2023-05-11T01:45:45;101362.13;;;11.81;100.00
57990;BME280;58373;51.824;5.564;2023-05-11T01:48:13;101351.97;;;11.78;100.00
57990;BME280;58373;51.824;5.564;2023-05-11T01:50:41;101364.38;;;11.74;100.00
57990;BME280;58373;51.824;5.564;2023-05-11T01:53:06;101354.81;;;11.75;100.00
57990;BME280;58373;51.824;5.564;2023-05-11T01:55:33;101362.59;;;11.75;100.00
57990;BME280;58373;51.824;5.564;2023-05-11T01:57:59;101358.34;;;11.74;100.00
57990;BME280;58373;51.824;5.564;2023-05-11T02:00:27;101370.41;;;11.75;100.00
57990;BME280;58373;51.824;5.564;2023-05-11T02:02:52;101371.22;;;11.75;100.00
57990;BME280;58373;51.824;5.564;2023-05-11T02:05:19;101364.97;;;11.78;100.00
57990;BME280;58373;51.824;5.564;2023-05-11T02:07:46;101379.50;;;11.80;100.00
57990;BME280;58373;51.824;5.564;2023-05-11T02:10:14;101382.03;;;11.82;100.00
57990;BME280;58373;51.824;5.564;2023-05-11T02:12:39;101380.13;;;11.84;100.00
57990;BME280;58373;51.824;5.564;2023-05-11T02:15:07;101377.41;;;11.85;100.00
57990;BME280;58373;51.824;5.564;2023-05-11T02:17:33;101366.19;;;11.85;100.00
57990;BME280;58373;51.824;5.564;2023-05-11T02:20:00;101368.78;;;11.85;100.00
57990;BME280;58373;51.824;5.564;2023-05-11T02:22:25;101377.53;;;11.84;100.00
57990;BME280;58373;51.824;5.564;2023-05-11T02:24:52;101376.56;;;11.85;100.00
57990;BME280;58373;51.824;5.564;2023-05-11T02:27:17;101373.28;;;11.83;100.00
57990;BME280;58373;51.824;5.564;2023-05-11T02:29:42;101375.13;;;11.81;100.00
57990;BME280;58373;51.824;5.564;2023-05-11T02:32:08;101369.22;;;11.79;100.00
57990;BME280;58373;51.824;5.564;2023-05-11T02:34:47;101370.41;;;11.75;100.00
57990;BME280;58373;51.824;5.564;2023-05-11T02:37:14;101368.75;;;11.74;100.00
57990;BME280;58373;51.824;5.564;2023-05-11T02:39:43;101369.00;;;11.70;100.00
57990;BME280;58373;51.824;5.564;2023-05-11T02:42:11;101369.22;;;11.67;100.00
57990;BME280;58373;51.824;5.564;2023-05-11T02:44:38;101369.50;;;11.64;100.00
57990;BME280;58373;51.824;5.564;2023-05-11T02:47:04;101366.16;;;11.62;100.00
57990;BME280;58373;51.824;5.564;2023-05-11T02:49:31;101368.06;;;11.60;100.00
57990;BME280;58373;51.824;5.564;2023-05-11T02:51:58;101375.97;;;11.59;100.00
57990;BME280;58373;51.824;5.564;2023-05-11T02:54:25;101368.28;;;11.57;100.00
57990;BME280;58373;51.824;5.564;2023-05-11T02:56:51;101361.44;;;11.56;100.00
57990;BME280;58373;51.824;5.564;2023-05-11T02:59:16;101361.44;;;11.56;100.00
57990;BME280;58373;51.824;5.564;2023-05-11T03:01:42;101359.91;;;11.54;100.00
57990;BME280;58373;51.824;5.564;2023-05-11T03:04:07;101354.81;;;11.52;100.00
57990;BME280;58373;51.824;5.564;2023-05-11T03:06:32;101362.63;;;11.52;100.00
57990;BME280;58373;51.824;5.564;2023-05-11T03:08:58;101367.09;;;11.50;100.00
57990;BME280;58373;51.824;5.564;2023-05-11T03:11:23;101374.19;;;11.48;100.00
57990;BME280;58373;51.824;5.564;2023-05-11T03:13:49;101366.50;;;11.47;100.00
57990;BME280;58373;51.824;5.564;2023-05-11T03:16:15;101364.97;;;11.44;100.00
57990;BME280;58373;51.824;5.564;2023-05-11T03:18:41;101359.91;;;11.42;100.00
57990;BME280;58373;51.824;5.564;2023-05-11T03:21:06;101362.38;;;11.44;100.00
57990;BME280;58373;51.824;5.564;2023-05-11T03:23:33;101364.28;;;11.42;100.00
57990;BME280;58373;51.824;5.564;2023-05-11T03:25:59;101348.91;;;11.39;100.00
57990;BME280;58373;51.824;5.564;2023-05-11T03:28:25;101357.88;;;11.35;100.00
57990;BME280;58373;51.824;5.564;2023-05-11T03:30:51;101364.03;;;11.34;100.00
57990;BME280;58373;51.824;5.564;2023-05-11T03:33:16;101360.84;;;11.30;100.00
57990;BME280;58373;51.824;5.564;2023-05-11T03:35:42;101360.03;;;11.30;100.00
57990;BME280;58373;51.824;5.564;2023-05-11T03:38:07;101362.72;;;11.28;100.00
57990;BME280;58373;51.824;5.564;2023-05-11T03:40:35;101356.69;;;11.28;100.00
57990;BME280;58373;51.824;5.564;2023-05-11T03:43:01;101356.69;;;11.28;100.00
57990;BME280;58373;51.824;5.564;2023-05-11T03:45:28;101356.69;;;11.28;100.00
57990;BME280;58373;51.824;5.564;2023-05-11T03:47:55;101361.06;;;11.27;100.00
57990;BME280;58373;51.824;5.564;2023-05-11T03:50:21;101349.88;;;11.27;100.00
57990;BME280;58373;51.824;5.564;2023-05-11T03:52:46;101361.78;;;11.29;100.00
57990;BME280;58373;51.824;5.564;2023-05-11T03:55:13;101352.94;;;11.32;100.00
57990;BME280;58373;51.824;5.564;2023-05-11T03:57:38;101358.13;;;11.32;100.00
57990;BME280;58373;51.824;5.564;2023-05-11T04:00:04;101356.34;;;11.32;100.00
57990;BME280;58373;51.824;5.564;2023-05-11T04:02:29;101359.78;;;11.33;100.00
57990;BME280;58373;51.824;5.564;2023-05-11T04:04:55;101361.44;;;11.34;100.00
57990;BME280;58373;51.824;5.564;2023-05-11T04:07:20;101361.44;;;11.34;100.00
57990;BME280;58373;51.824;5.564;2023-05-11T04:09:45;101365.66;;;11.35;100.00
57990;BME280;58373;51.824;5.564;2023-05-11T04:12:10;101364.75;;;11.36;100.00
57990;BME280;58373;51.824;5.564;2023-05-11T04:14:35;101368.06;;;11.38;100.00
57990;BME280;58373;51.824;5.564;2023-05-11T04:17:01;101364.50;;;11.39;100.00
57990;BME280;58373;51.824;5.564;2023-05-11T04:19:26;101365.31;;;11.39;100.00
57990;BME280;58373;51.824;5.564;2023-05-11T04:21:51;101366.97;;;11.40;100.00
57990;BME280;58373;51.824;5.564;2023-05-11T04:24:17;101365.19;;;11.41;100.00
57990;BME280;58373;51.824;5.564;2023-05-11T04:26:42;101379.88;;;11.42;100.00
57990;BME280;58373;51.824;5.564;2023-05-11T04:29:07;101379.88;;;11.42;100.00
57990;BME280;58373;51.824;5.564;2023-05-11T04:31:32;101371.13;;;11.43;100.00
57990;BME280;58373;51.824;5.564;2023-05-11T04:33:57;101377.97;;;11.44;100.00
57990;BME280;58373;51.824;5.564;2023-05-11T04:36:23;101381.50;;;11.43;100.00
57990;BME280;58373;51.824;5.564;2023-05-11T04:38:48;101379.03;;;11.41;100.00
57990;BME280;58373;51.824;5.564;2023-05-11T04:41:14;101377.28;;;11.42;100.00
57990;BME280;58373;51.824;5.564;2023-05-11T04:43:39;101382.47;;;11.42;100.00
57990;BME280;58373;51.824;5.564;2023-05-11T04:46:04;101386.72;;;11.43;100.00
57990;BME280;58373;51.824;5.564;2023-05-11T04:48:30;101388.38;;;11.44;100.00
57990;BME280;58373;51.824;5.564;2023-05-11T04:50:55;101394.38;;;11.44;100.00
57990;BME280;58373;51.824;5.564;2023-05-11T04:53:21;101389.06;;;11.46;100.00
57990;BME280;58373;51.824;5.564;2023-05-11T04:55:46;101399.44;;;11.46;100.00
57990;BME280;58373;51.824;5.564;2023-05-11T04:58:12;101395.19;;;11.45;100.00
57990;BME280;58373;51.824;5.564;2023-05-11T05:00:37;101396.03;;;11.46;100.00
57990;BME280;58373;51.824;5.564;2023-05-11T05:03:02;101391.66;;;11.46;100.00
57990;BME280;58373;51.824;5.564;2023-05-11T05:05:28;101397.81;;;11.45;100.00
57990;BME280;58373;51.824;5.564;2023-05-11T05:07:53;101399.44;;;11.46;100.00
57990;BME280;58373;51.824;5.564;2023-05-11T05:10:19;101401.94;;;11.48;100.00
57990;BME280;58373;51.824;5.564;2023-05-11T05:12:44;101402.78;;;11.48;100.00
57990;BME280;58373;51.824;5.564;2023-05-11T05:15:09;101400.88;;;11.50;100.00
57990;BME280;58373;51.824;5.564;2023-05-11T05:17:35;101390.50;;;11.50;100.00
57990;BME280;58373;51.824;5.564;2023-05-11T05:20:01;101403.47;;;11.50;100.00
57990;BME280;58373;51.824;5.564;2023-05-11T05:22:26;101391.19;;;11.52;100.00
57990;BME280;58373;51.824;5.564;2023-05-11T05:24:51;101402.31;;;11.54;100.00
57990;BME280;58373;51.824;5.564;2023-05-11T05:27:17;101398.63;;;11.57;100.00
57990;BME280;58373;51.824;5.564;2023-05-11T05:29:42;101404.44;;;11.60;100.00
57990;BME280;58373;51.824;5.564;2023-05-11T05:32:07;101409.38;;;11.63;100.00
57990;BME280;58373;51.824;5.564;2023-05-11T05:34:32;101413.41;;;11.67;100.00
57990;BME280;58373;51.824;5.564;2023-05-11T05:36:57;101407.03;;;11.72;100.00
57990;BME280;58373;51.824;5.564;2023-05-11T05:39:23;101411.97;;;11.75;100.00
57990;BME280;58373;51.824;5.564;2023-05-11T05:41:48;101408.22;;;11.79;100.00
57990;BME280;58373;51.824;5.564;2023-05-11T05:44:13;101420.06;;;11.83;100.00
57990;BME280;58373;51.824;5.564;2023-05-11T05:46:38;101414.59;;;11.86;100.00
57990;BME280;58373;51.824;5.564;2023-05-11T05:49:04;101409.19;;;11.89;100.00
57990;BME280;58373;51.824;5.564;2023-05-11T05:51:29;101415.81;;;11.93;100.00
57990;BME280;58373;51.824;5.564;2023-05-11T05:53:55;101419.09;;;11.95;100.00
57990;BME280;58373;51.824;5.564;2023-05-11T05:56:20;101420.75;;;11.96;100.00
57990;BME280;58373;51.824;5.564;2023-05-11T05:58:45;101430.94;;;11.99;100.00
57990;BME280;58373;51.824;5.564;2023-05-11T06:01:11;101434.22;;;12.01;100.00
57990;BME280;58373;51.824;5.564;2023-05-11T06:03:36;101437.53;;;12.03;100.00
57990;BME280;58373;51.824;5.564;2023-05-11T06:06:01;101445.44;;;12.02;100.00
57990;BME280;58373;51.824;5.564;2023-05-11T06:08:27;101440.25;;;12.02;100.00
57990;BME280;58373;51.824;5.564;2023-05-11T06:10:52;101446.28;;;12.02;100.00
57990;BME280;58373;51.824;5.564;2023-05-11T06:13:17;101450.53;;;12.03;100.00
57990;BME280;58373;51.824;5.564;2023-05-11T06:15:42;101447.91;;;12.03;100.00
57990;BME280;58373;51.824;5.564;2023-05-11T06:18:08;101444.16;;;12.07;100.00
57990;BME280;58373;51.824;5.564;2023-05-11T06:20:33;101445.09;;;12.06;100.00
57990;BME280;58373;51.824;5.564;2023-05-11T06:22:58;101440.59;;;12.08;100.00
57990;BME280;58373;51.824;5.564;2023-05-11T06:25:23;101445.56;;;12.11;100.00
57990;BME280;58373;51.824;5.564;2023-05-11T06:27:49;101432.66;;;12.10;100.00
57990;BME280;58373;51.824;5.564;2023-05-11T06:30:14;101438.47;;;12.13;100.00
57990;BME280;58373;51.824;5.564;2023-05-11T06:32:39;101455.50;;;12.17;100.00
57990;BME280;58373;51.824;5.564;2023-05-11T06:35:04;101450.97;;;12.19;100.00
57990;BME280;58373;51.824;5.564;2023-05-11T06:37:30;101453.34;;;12.22;100.00
57990;BME280;58373;51.824;5.564;2023-05-11T06:39:56;101447.44;;;12.20;100.00
57990;BME280;58373;51.824;5.564;2023-05-11T06:42:22;101442.22;;;12.20;100.00
57990;BME280;58373;51.824;5.564;2023-05-11T06:44:47;101445.09;;;12.17;100.00
57990;BME280;58373;51.824;5.564;2023-05-11T06:47:12;101443.19;;;12.19;100.00
57990;BME280;58373;51.824;5.564;2023-05-11T06:49:38;101444.84;;;12.20;100.00
57990;BME280;58373;51.824;5.564;2023-05-11T06:52:03;101451.72;;;12.21;100.00
57990;BME280;58373;51.824;5.564;2023-05-11T06:54:28;101455.00;;;12.23;100.00
57990;BME280;58373;51.824;5.564;2023-05-11T06:56:54;101458.31;;;12.26;100.00
57990;BME280;58373;51.824;5.564;2023-05-11T06:59:19;101450.38;;;12.27;100.00
57990;BME280;58373;51.824;5.564;2023-05-11T07:01:45;101453.09;;;12.26;100.00
57990;BME280;58373;51.824;5.564;2023-05-11T07:04:10;101460.69;;;12.29;100.00
57990;BME280;58373;51.824;5.564;2023-05-11T07:06:35;101462.47;;;12.28;100.00
57990;BME280;58373;51.824;5.564;2023-05-11T07:09:01;101465.97;;;12.27;100.00
57990;BME280;58373;51.824;5.564;2023-05-11T07:11:27;101465.97;;;12.27;100.00
57990;BME280;58373;51.824;5.564;2023-05-11T07:13:53;101466.84;;;12.28;100.00
57990;BME280;58373;51.824;5.564;2023-05-11T07:16:18;101461.38;;;12.31;100.00
57990;BME280;58373;51.824;5.564;2023-05-11T07:18:43;101466.56;;;12.31;100.00
57990;BME280;58373;51.824;5.564;2023-05-11T07:21:08;101461.38;;;12.31;100.00
57990;BME280;58373;51.824;5.564;2023-05-11T07:23:34;101469.88;;;12.33;100.00
57990;BME280;58373;51.824;5.564;2023-05-11T07:25:59;101473.19;;;12.35;100.00
57990;BME280;58373;51.824;5.564;2023-05-11T07:28:25;101469.88;;;12.33;100.00
57990;BME280;58373;51.824;5.564;2023-05-11T07:30:51;101473.19;;;12.35;100.00
57990;BME280;58373;51.824;5.564;2023-05-11T07:33:16;101473.19;;;12.35;100.00
57990;BME280;58373;51.824;5.564;2023-05-11T07:35:41;101473.75;;;12.38;100.00
57990;BME280;58373;51.824;5.564;2023-05-11T07:38:06;101474.84;;;12.36;100.00
57990;BME280;58373;51.824;5.564;2023-05-11T07:40:33;101472.94;;;12.38;100.00
57990;BME280;58373;51.824;5.564;2023-05-11T07:42:59;101479.56;;;12.42;100.00
57990;BME280;58373;51.824;5.564;2023-05-11T07:45:24;101479.56;;;12.42;100.00
57990;BME280;58373;51.824;5.564;2023-05-11T07:47:49;101481.22;;;12.43;100.00
57990;BME280;58373;51.824;5.564;2023-05-11T07:50:14;101480.97;;;12.46;100.00
57990;BME280;58373;51.824;5.564;2023-05-11T07:52:40;101485.94;;;12.49;100.00
57990;BME280;58373;51.824;5.564;2023-05-11T07:55:05;101481.44;;;12.51;100.00
57990;BME280;58373;51.824;5.564;2023-05-11T07:57:30;101478.84;;;12.51;100.00
57990;BME280;58373;51.824;5.564;2023-05-11T07:59:56;101476.13;;;12.53;100.00
57990;BME280;58373;51.824;5.564;2023-05-11T08:02:21;101476.72;;;12.56;100.00
57990;BME280;58373;51.824;5.564;2023-05-11T08:04:46;101479.75;;;12.61;100.00
57990;BME280;58373;51.824;5.564;2023-05-11T08:07:11;101475.97;;;12.65;100.00
57990;BME280;58373;51.824;5.564;2023-05-11T08:09:37;101475.72;;;12.68;100.00
57990;BME280;58373;51.824;5.564;2023-05-11T08:12:02;101480.44;;;12.74;100.00
57990;BME280;58373;51.824;5.564;2023-05-11T08:14:27;101482.78;;;12.77;100.00
57990;BME280;58373;51.824;5.564;2023-05-11T08:16:53;101487.63;;;12.82;100.00
57990;BME280;58373;51.824;5.564;2023-05-11T08:19:18;101481.22;;;12.86;100.00
57990;BME280;58373;51.824;5.564;2023-05-11T08:21:43;101479.31;;;12.88;100.00
57990;BME280;58373;51.824;5.564;2023-05-11T08:24:10;101483.00;;;12.86;100.00
57990;BME280;58373;51.824;5.564;2023-05-11T08:26:35;101481.09;;;12.88;100.00
57990;BME280;58373;51.824;5.564;2023-05-11T08:29:00;101473.75;;;12.93;100.00
57990;BME280;58373;51.824;5.564;2023-05-11T08:31:25;101489.69;;;12.99;100.00
57990;BME280;58373;51.824;5.564;2023-05-11T08:33:51;101485.06;;;13.03;100.00
57990;BME280;58373;51.824;5.564;2023-05-11T08:36:16;101484.81;;;13.06;100.00
57990;BME280;58373;51.824;5.564;2023-05-11T08:38:41;101475.56;;;13.13;100.00
57990;BME280;58373;51.824;5.564;2023-05-11T08:41:06;101473.38;;;13.18;100.00
57990;BME280;58373;51.824;5.564;2023-05-11T08:43:35;101467.69;;;13.24;100.00
57990;BME280;58373;51.824;5.564;2023-05-11T08:46:03;101468.88;;;13.32;100.00
57990;BME280;58373;51.824;5.564;2023-05-11T08:48:28;101470.00;;;13.39;100.00
57990;BME280;58373;51.824;5.564;2023-05-11T08:50:54;101467.56;;;13.47;100.00
57990;BME280;58373;51.824;5.564;2023-05-11T08:53:21;101479.16;;;13.54;100.00
57990;BME280;58373;51.824;5.564;2023-05-11T08:55:46;101480.53;;;13.58;100.00
57990;BME280;58373;51.824;5.564;2023-05-11T08:58:12;101477.16;;;13.67;100.00
57990;BME280;58373;51.824;5.564;2023-05-11T09:00:39;101475.88;;;13.82;100.00
57990;BME280;58373;51.824;5.564;2023-05-11T09:03:04;101479.66;;;13.99;100.00
57990;BME280;58373;51.824;5.564;2023-05-11T09:05:30;101476.09;;;14.10;100.00
57990;BME280;58373;51.824;5.564;2023-05-11T09:07:58;101476.44;;;14.26;100.00
57990;BME280;58373;51.824;5.564;2023-05-11T09:10:24;101483.63;;;14.44;100.00
57990;BME280;58373;51.824;5.564;2023-05-11T09:12:49;101482.56;;;14.56;100.00
57990;BME280;58373;51.824;5.564;2023-05-11T09:15:15;101478.47;;;14.63;100.00
57990;BME280;58373;51.824;5.564;2023-05-11T09:17:40;101484.38;;;14.65;100.00
57990;BME280;58373;51.824;5.564;2023-05-11T09:20:05;101483.16;;;14.69;100.00
57990;BME280;58373;51.824;5.564;2023-05-11T09:22:40;101488.09;;;14.72;100.00
57990;BME280;58373;51.824;5.564;2023-05-11T09:25:05;101484.81;;;14.70;100.00
57990;BME280;58373;51.824;5.564;2023-05-11T09:27:30;101485.06;;;14.67;100.00
57990;BME280;58373;51.824;5.564;2023-05-11T09:29:56;101488.38;;;14.69;100.00
57990;BME280;58373;51.824;5.564;2023-05-11T09:32:24;101484.25;;;14.76;100.00
57990;BME280;58373;51.824;5.564;2023-05-11T09:34:50;101487.00;;;14.94;100.00
57990;BME280;58373;51.824;5.564;2023-05-11T09:37:16;101491.97;;;14.97;100.00
57990;BME280;58373;51.824;5.564;2023-05-11T09:39:41;101482.91;;;14.92;100.00
57990;BME280;58373;51.824;5.564;2023-05-11T09:44:35;101488.38;;;14.88;100.00
57990;BME280;58373;51.824;5.564;2023-05-11T09:47:09;101488.13;;;14.92;100.00
57990;BME280;58373;51.824;5.564;2023-05-11T09:49:34;101492.81;;;14.98;100.00
57990;BME280;58373;51.824;5.564;2023-05-11T09:51:59;101495.25;;;14.99;100.00
57990;BME280;58373;51.824;5.564;2023-05-11T09:54:25;101494.16;;;15.02;100.00
57990;BME280;58373;51.824;5.564;2023-05-11T09:56:51;101496.09;;;15.09;100.00
57990;BME280;58373;51.824;5.564;2023-05-11T09:59:40;101493.88;;;15.05;100.00
57990;BME280;58373;51.824;5.564;2023-05-11T10:04:50;101496.91;;;15.00;100.00
57990;BME280;58373;51.824;5.564;2023-05-11T10:09:55;101488.81;;;14.94;100.00
57990;BME280;58373;51.824;5.564;2023-05-11T10:12:21;101488.38;;;14.88;100.00
57990;BME280;58373;51.824;5.564;2023-05-11T10:14:48;101493.34;;;14.82;100.00
57990;BME280;58373;51.824;5.564;2023-05-11T10:17:15;101483.72;;;14.82;100.00
57990;BME280;58373;51.824;5.564;2023-05-11T10:19:41;101487.41;;;14.90;100.00
57990;BME280;58373;51.824;5.564;2023-05-11T10:22:06;101486.59;;;14.99;100.00
57990;BME280;58373;51.824;5.564;2023-05-11T10:24:32;101485.50;;;15.11;100.00
57990;BME280;58373;51.824;5.564;2023-05-11T10:26:57;101482.44;;;15.25;99.90
57990;BME280;58373;51.824;5.564;2023-05-11T10:29:23;101488.22;;;15.38;99.07
57990;BME280;58373;51.824;5.564;2023-05-11T10:31:48;101479.53;;;15.48;98.42
57990;BME280;58373;51.824;5.564;2023-05-11T10:34:15;101479.25;;;15.60;99.42
57990;BME280;58373;51.824;5.564;2023-05-11T10:36:41;101473.72;;;15.73;99.04
57990;BME280;58373;51.824;5.564;2023-05-11T10:39:07;101484.44;;;15.80;98.66
57990;BME280;58373;51.824;5.564;2023-05-11T10:44:15;101489.66;;;15.80;97.39
57990;BME280;58373;51.824;5.564;2023-05-11T10:59:52;101496.13;;;15.85;95.41
57990;BME280;58373;51.824;5.564;2023-05-11T11:02:21;101495.69;;;15.90;94.21
57990;BME280;58373;51.824;5.564;2023-05-11T11:04:47;101481.88;;;15.98;93.28
57990;BME280;58373;51.824;5.564;2023-05-11T11:07:13;101477.03;;;16.03;94.76
57990;BME280;58373;51.824;5.564;2023-05-11T11:09:57;101482.09;;;16.14;94.67
57990;BME280;58373;51.824;5.564;2023-05-11T11:12:36;101475.41;;;16.29;92.52
57990;BME280;58373;51.824;5.564;2023-05-11T11:15:05;101485.88;;;16.29;93.92
57990;BME280;58373;51.824;5.564;2023-05-11T11:17:34;101480.34;;;16.32;93.01
57990;BME280;58373;51.824;5.564;2023-05-11T11:20:03;101481.59;;;16.28;93.53
57990;BME280;58373;51.824;5.564;2023-05-11T11:25:02;101478.69;;;16.31;91.87
57990;BME280;58373;51.824;5.564;2023-05-11T11:30:46;101484.97;;;16.38;90.92
57990;BME280;58373;51.824;5.564;2023-05-11T11:32:54;101478.16;;;16.28;90.54
57990;BME280;58373;51.824;5.564;2023-05-11T11:38:03;101476.97;;;16.40;88.45
57990;BME280;58373;51.824;5.564;2023-05-11T11:40:36;101478.69;;;16.31;89.83
57990;BME280;58373;51.824;5.564;2023-05-11T11:43:08;101473.44;;;16.31;91.16
57990;BME280;58373;51.824;5.564;2023-05-11T11:45:35;101476.16;;;16.39;91.04
57990;BME280;58373;51.824;5.564;2023-05-11T11:50:31;101466.75;;;16.46;90.47
57990;BME280;58373;51.824;5.564;2023-05-11T11:52:57;101475.22;;;16.58;88.78
57990;BME280;58373;51.824;5.564;2023-05-11T11:58:07;101469.16;;;16.58;88.82
57990;BME280;58373;51.824;5.564;2023-05-11T12:00:32;101469.34;;;16.74;89.27
57990;BME280;58373;51.824;5.564;2023-05-11T12:02:57;101467.09;;;16.79;88.30
57990;BME280;58373;51.824;5.564;2023-05-11T12:05:23;101464.56;;;16.87;88.58
57990;BME280;58373;51.824;5.564;2023-05-11T12:07:51;101464.31;;;16.98;88.35
57990;BME280;58373;51.824;5.564;2023-05-11T12:10:17;101467.66;;;17.09;87.37
57990;BME280;58373;51.824;5.564;2023-05-11T12:12:46;101471.25;;;17.08;86.22
57990;BME280;58373;51.824;5.564;2023-05-11T12:18:16;101469.78;;;17.31;85.34
57990;BME280;58373;51.824;5.564;2023-05-11T12:20:44;101473.41;;;17.30;85.71
57990;BME280;58373;51.824;5.564;2023-05-11T12:23:09;101463.28;;;17.35;85.94
57990;BME280;58373;51.824;5.564;2023-05-11T12:25:34;101469.19;;;17.37;85.14
57990;BME280;58373;51.824;5.564;2023-05-11T12:28:00;101470.50;;;17.33;84.36
57990;BME280;58373;51.824;5.564;2023-05-11T12:30:30;101476.34;;;17.27;83.09
57990;BME280;58373;51.824;5.564;2023-05-11T12:32:55;101470.03;;;17.20;83.60
57990;BME280;58373;51.824;5.564;2023-05-11T12:35:21;101472.81;;;17.18;83.88
57990;BME280;58373;51.824;5.564;2023-05-11T12:37:48;101471.97;;;17.10;81.83
57990;BME280;58373;51.824;5.564;2023-05-11T12:40:13;101467.22;;;16.95;82.68
57990;BME280;58373;51.824;5.564;2023-05-11T12:42:38;101464.94;;;16.92;82.50
57990;BME280;58373;51.824;5.564;2023-05-11T12:45:13;101464.84;;;16.84;82.29
57990;BME280;58373;51.824;5.564;2023-05-11T12:47:38;101472.03;;;16.82;82.16
57990;BME280;58373;51.824;5.564;2023-05-11T12:50:04;101473.47;;;16.77;82.75
57990;BME280;58373;51.824;5.564;2023-05-11T12:52:30;101471.13;;;16.73;81.81
57990;BME280;58373;51.824;5.564;2023-05-11T12:54:55;101472.84;;;16.65;81.14
57990;BME280;58373;51.824;5.564;2023-05-11T12:57:29;101476.31;;;16.56;82.71
57990;BME280;58373;51.824;5.564;2023-05-11T13:02:29;101490.53;;;16.08;84.91
57990;BME280;58373;51.824;5.564;2023-05-11T13:04:54;101494.00;;;15.99;83.91
57990;BME280;58373;51.824;5.564;2023-05-11T13:07:23;101491.47;;;15.79;86.42
57990;BME280;58373;51.824;5.564;2023-05-11T13:09:55;101489.16;;;15.57;87.33
57990;BME280;58373;51.824;5.564;2023-05-11T13:12:22;101488.06;;;15.40;86.30
57990;BME280;58373;51.824;5.564;2023-05-11T13:14:48;101487.28;;;15.20;89.17
57990;BME280;58373;51.824;5.564;2023-05-11T13:17:33;101487.28;;;15.10;89.67
57990;BME280;58373;51.824;5.564;2023-05-11T13:20:18;101495.81;;;15.03;89.15
57990;BME280;58373;51.824;5.564;2023-05-11T13:22:44;101500.91;;;14.95;89.29
57990;BME280;58373;51.824;5.564;2023-05-11T13:25:10;101495.81;;;14.93;90.23
57990;BME280;58373;51.824;5.564;2023-05-11T13:27:35;101498.84;;;14.88;90.00
57990;BME280;58373;51.824;5.564;2023-05-11T13:30:02;101496.50;;;14.85;91.08